Koosharem, UT (84744)

1:40 PM MST on December 05, 2016 (GMT -0700)
APRSWXNET | | Change Station

Elev 7096 ft 38.40 °N, 111.66 °W | Updated 36 minutes ago

Clear
Clear
38 °F
Feels Like 31 °F
N
11
Wind Variable Wind from NW
Gusts 17.0 mph

Today
High -- | Low -- °F
--% Chance of Precip.
Yesterday
High -- | Low -- °F
Precip. -- in
Pressure 29.88 in
Visibility 10.0 miles
Clouds Clear
Windchill 31 °F
Dew Point 20 °F
Humidity 48%
Rainfall in
Snow Depth Not available.
7:30 AM 5:06 PM
Waxing Crescent, 34% visible
METAR KBCE 051953Z AUTO 30016G25KT 10SM CLR 04/M12 A2992 RMK AO2 PK WND 30033/1922 SLP117 T00391122 TSNO
Pressure 29.88 in
Visibility 10.0 miles
Clouds Clear
Windchill 31 °F
Dew Point 20 °F
Humidity 48%
Rainfall in
Snow Depth Not available.
7:30 AM 5:06 PM
Waxing Crescent, 34% visible
METAR KBCE 051953Z AUTO 30016G25KT 10SM CLR 04/M12 A2992 RMK AO2 PK WND 30033/1922 SLP117 T00391122 TSNO

10-Day Weather Forecast

Almanac

Astronomy

Dec. 05, 2016 Rise Set
Actual Time
Civil Twilight
Nautical Twilight
Astronomical Twilight
Moon
Length of Visible Light
Length of Day
Tomorrow will be .
, % of the Moon is Illuminated

Today's Extremes

State Highs State Lows

Community

WunderPhotos

Upload Photos

1,955,859 photos uploaded!

WunderBlog® & News

Nearby

Air Quality

  Air Quality AQ Index Pollutant
Not available.

Snow Depth

Station Depth Elevation

Earthquake Activity

City Distance Mag. Time & Date
Minimum magnitude displayed is 2.5.

Coastal Water Temperatures

Place Temperature

Stations

Nearby Weather Stations

Station Location Temp. Windchill Dew Point Humidity Wind Precip. Elev Updated Type
                   

Watches & Warnings

There are currently no watches in effect.